createdAt,value
2023-03-21T00:00:15.541Z,96.47
2023-03-21T00:01:11.539Z,96.27
2023-03-21T00:02:11.532Z,96.37
2023-03-21T00:03:11.505Z,96.37
2023-03-21T00:04:11.653Z,96.17
2023-03-21T00:05:15.843Z,96.06
2023-03-21T00:06:11.440Z,96.17
2023-03-21T00:07:11.442Z,95.96
2023-03-21T00:08:11.429Z,96.37
2023-03-21T00:09:11.429Z,96.17
2023-03-21T00:10:16.553Z,95.96
2023-03-21T00:11:12.395Z,96.37
2023-03-21T00:12:11.378Z,95.96
2023-03-21T00:13:11.360Z,96.06
2023-03-21T00:14:11.393Z,95.86
2023-03-21T00:15:11.309Z,96.06
2023-03-21T00:16:15.435Z,95.86
2023-03-21T00:17:12.307Z,95.75
2023-03-21T00:18:11.302Z,95.86
2023-03-21T00:19:14.327Z,95.86
2023-03-21T00:20:14.319Z,96.06
2023-03-21T00:21:38.356Z,95.65
2023-03-21T00:22:12.244Z,95.81
2023-03-21T00:23:11.217Z,95.34
2023-03-21T00:24:11.197Z,95.81
2023-03-21T00:25:11.188Z,95.61
2023-03-21T00:26:11.206Z,95.65
2023-03-21T00:27:34.618Z,95.61
2023-03-21T00:28:12.140Z,95.81
2023-03-21T00:29:11.135Z,95.40
2023-03-21T00:30:11.121Z,95.45
2023-03-21T00:31:11.133Z,95.34
2023-03-21T00:32:11.094Z,95.24
2023-03-21T00:33:22.090Z,95.34
2023-03-21T00:35:45.322Z,95.20
2023-03-21T00:36:12.531Z,95.24
2023-03-21T00:37:11.021Z,95.45
2023-03-21T00:38:11.013Z,95.55
2023-03-21T00:39:14.003Z,95.03
2023-03-21T00:40:26.777Z,95.14
2023-03-21T00:41:23.168Z,94.93
2023-03-21T00:42:11.965Z,95.03
2023-03-21T00:43:10.936Z,95.03
2023-03-21T00:44:10.942Z,94.99
2023-03-21T00:45:10.915Z,94.93
2023-03-21T00:46:10.994Z,94.93
2023-03-21T00:47:10.978Z,94.83
2023-03-21T00:48:10.940Z,94.68
2023-03-21T00:49:10.855Z,94.68
2023-03-21T00:50:10.867Z,94.48
2023-03-21T00:51:10.839Z,94.68
2023-03-21T00:52:27.347Z,94.58
2023-03-21T00:53:11.800Z,94.68
2023-03-21T00:54:10.788Z,94.78
2023-03-21T00:55:10.782Z,94.48
2023-03-21T00:56:10.790Z,94.62
2023-03-21T00:57:10.763Z,94.62
2023-03-21T00:58:10.773Z,94.52
2023-03-21T00:59:13.731Z,94.52
2023-03-21T01:00:13.759Z,94.58
2023-03-21T01:01:10.789Z,94.89
2023-03-21T01:02:10.745Z,94.52
2023-03-21T01:03:23.335Z,94.27
2023-03-21T01:04:11.671Z,94.37
2023-03-21T01:05:10.644Z,94.48
2023-03-21T01:06:10.636Z,94.27
2023-03-21T01:07:10.677Z,94.48
2023-03-21T01:08:23.792Z,94.37
2023-03-21T01:09:11.591Z,94.37
2023-03-21T01:10:10.586Z,94.37
2023-03-21T01:11:10.571Z,94.27
2023-03-21T01:12:10.564Z,94.27
2023-03-21T01:13:10.588Z,94.48
2023-03-21T01:14:21.989Z,93.96
2023-03-21T01:15:11.517Z,93.86
2023-03-21T01:16:10.521Z,93.92
2023-03-21T01:17:10.478Z,94.07
2023-03-21T01:18:10.470Z,94.17
2023-03-21T01:19:23.937Z,94.07
2023-03-21T01:20:14.469Z,94.07
2023-03-21T01:21:10.445Z,94.37
2023-03-21T01:22:10.439Z,94.17
2023-03-21T01:23:10.403Z,94.02
2023-03-21T01:24:10.389Z,93.86
2023-03-21T01:25:21.869Z,93.92
2023-03-21T01:26:11.376Z,93.96
2023-03-21T01:27:10.345Z,93.92
2023-03-21T01:28:10.339Z,93.76
2023-03-21T01:29:10.330Z,93.76
2023-03-21T01:30:19.156Z,93.92
2023-03-21T01:31:11.354Z,94.17
2023-03-21T01:32:10.284Z,93.76
2023-03-21T01:33:10.270Z,93.61
2023-03-21T01:34:10.272Z,93.86
2023-03-21T01:35:10.300Z,93.76
2023-03-21T01:36:13.548Z,93.76
2023-03-21T01:37:10.208Z,93.55
2023-03-21T01:38:10.230Z,93.55
2023-03-21T01:39:13.192Z,93.55
2023-03-21T01:40:13.223Z,93.65
2023-03-21T01:41:19.249Z,93.65
2023-03-21T01:42:11.183Z,93.65
2023-03-21T01:43:10.168Z,93.65
2023-03-21T01:44:10.112Z,93.55
2023-03-21T01:45:10.107Z,93.55
2023-03-21T01:46:10.164Z,93.65
2023-03-21T01:47:12.234Z,93.51
2023-03-21T01:48:10.098Z,93.61
2023-03-21T01:49:10.065Z,93.51
2023-03-21T01:50:10.036Z,93.44
2023-03-21T01:51:10.028Z,93.30
2023-03-21T01:52:15.286Z,93.30
2023-03-21T01:53:11.019Z,93.30
2023-03-21T01:54:09.979Z,93.55
2023-03-21T01:55:09.972Z,93.30
2023-03-21T01:56:09.968Z,93.30
2023-03-21T01:57:09.987Z,93.40
2023-03-21T01:58:09.933Z,93.20
2023-03-21T01:59:12.907Z,93.30
2023-03-21T02:00:12.995Z,93.10
2023-03-21T02:01:09.958Z,93.30
2023-03-21T02:02:09.877Z,93.20
2023-03-21T02:03:15.238Z,93.10
2023-03-21T02:04:10.944Z,93.10
2023-03-21T02:05:09.830Z,93.10
2023-03-21T02:06:09.834Z,93.10
2023-03-21T02:07:09.861Z,93.20
2023-03-21T02:08:09.851Z,93.14
2023-03-21T02:09:09.876Z,93.10
2023-03-21T02:10:09.826Z,92.89
2023-03-21T02:11:09.807Z,92.99
2023-03-21T02:12:09.748Z,92.99
2023-03-21T02:13:09.753Z,93.10
2023-03-21T02:14:10.113Z,92.89
2023-03-21T02:15:09.716Z,92.79
2023-03-21T02:16:09.702Z,92.95
2023-03-21T02:17:09.666Z,93.05
2023-03-21T02:18:09.658Z,92.74
2023-03-21T02:19:15.635Z,93.16
2023-03-21T02:20:12.658Z,92.85
2023-03-21T02:21:09.616Z,92.85
2023-03-21T02:22:09.596Z,92.85
2023-03-21T02:23:09.598Z,92.85
2023-03-21T02:24:09.652Z,92.54
2023-03-21T02:25:21.306Z,92.89
2023-03-21T02:26:10.549Z,92.99
2023-03-21T02:27:09.552Z,92.54
2023-03-21T02:28:09.533Z,92.64
2023-03-21T02:29:09.509Z,92.54
2023-03-21T02:30:09.949Z,92.79
2023-03-21T02:31:09.541Z,92.79
2023-03-21T02:32:22.422Z,92.54
2023-03-21T02:33:10.469Z,92.33
2023-03-21T02:34:09.440Z,92.44
2023-03-21T02:35:09.469Z,92.54
2023-03-21T02:36:14.326Z,92.64
2023-03-21T02:37:10.400Z,92.64
2023-03-21T02:38:09.389Z,92.48
2023-03-21T02:39:12.384Z,92.38
2023-03-21T02:40:12.394Z,92.48
2023-03-21T02:41:18.011Z,92.52
2023-03-21T02:42:10.362Z,92.48
2023-03-21T02:43:22.175Z,92.27
2023-03-21T02:44:10.303Z,92.27
2023-03-21T02:45:09.333Z,92.27
2023-03-21T02:46:09.307Z,92.38
2023-03-21T02:47:09.349Z,92.38
2023-03-21T02:48:12.173Z,92.48
2023-03-21T02:49:10.264Z,92.69
2023-03-21T02:50:09.248Z,92.17
2023-03-21T02:51:09.216Z,92.58
2023-03-21T02:52:16.977Z,92.38
2023-03-21T02:53:10.204Z,92.07
2023-03-21T02:55:10.170Z,92.17
2023-03-21T02:56:09.175Z,92.17
2023-03-21T02:57:09.167Z,91.97
2023-03-21T02:58:13.124Z,91.97
2023-03-21T02:59:12.131Z,92.07
2023-03-21T03:00:16.649Z,91.86
2023-03-21T03:01:10.278Z,91.97
2023-03-21T03:02:09.087Z,92.07
2023-03-21T03:03:12.656Z,92.07
2023-03-21T03:04:10.209Z,91.93
2023-03-21T03:05:20.365Z,91.76
2023-03-21T03:06:10.038Z,91.97
2023-03-21T03:07:09.022Z,91.61
2023-03-21T03:08:09.002Z,91.72
2023-03-21T03:09:09.009Z,91.76
2023-03-21T03:10:09.012Z,91.76
2023-03-21T03:11:08.974Z,91.86
2023-03-21T03:12:08.966Z,91.61
2023-03-21T03:13:08.935Z,92.03
2023-03-21T03:14:31.610Z,91.55
2023-03-21T03:15:10.016Z,91.86
2023-03-21T03:16:08.943Z,91.66
2023-03-21T03:17:08.895Z,91.66
2023-03-21T03:18:08.877Z,91.72
2023-03-21T03:19:11.868Z,91.61
2023-03-21T03:20:16.465Z,91.41
2023-03-21T03:21:09.854Z,91.61
2023-03-21T03:22:08.820Z,91.61
2023-03-21T03:23:08.821Z,91.82
2023-03-21T03:24:08.838Z,91.55
2023-03-21T03:25:19.861Z,91.41
2023-03-21T03:26:09.786Z,91.41
2023-03-21T03:27:08.757Z,91.20
2023-03-21T03:28:08.781Z,91.76
2023-03-21T03:29:08.748Z,91.31
2023-03-21T03:30:08.734Z,91.20
2023-03-21T03:31:10.204Z,91.55
2023-03-21T03:32:08.755Z,91.41
2023-03-21T03:33:08.678Z,91.31
2023-03-21T03:34:08.665Z,91.41
2023-03-21T03:35:08.650Z,91.41
2023-03-21T03:36:10.879Z,91.45
2023-03-21T03:37:08.705Z,91.25
2023-03-21T03:38:08.621Z,91.45
2023-03-21T03:39:11.638Z,91.04
2023-03-21T03:40:11.616Z,91.35
2023-03-21T03:41:08.597Z,91.25
2023-03-21T03:42:21.711Z,91.04
2023-03-21T03:43:09.610Z,91.14
2023-03-21T03:44:08.542Z,91.04
2023-03-21T03:45:08.548Z,91.04
2023-03-21T03:46:08.577Z,91.14
2023-03-21T03:47:08.564Z,91.00
2023-03-21T03:48:08.543Z,90.94
2023-03-21T03:49:08.522Z,91.14
2023-03-21T03:50:08.466Z,91.35
2023-03-21T03:51:08.462Z,91.04
2023-03-21T03:52:08.475Z,90.94
2023-03-21T03:53:17.608Z,90.83
2023-03-21T03:54:09.436Z,90.69
2023-03-21T03:55:08.406Z,90.73
2023-03-21T03:56:08.402Z,90.63
2023-03-21T03:57:08.385Z,90.83
2023-03-21T03:58:19.611Z,90.53
2023-03-21T03:59:12.405Z,90.94
2023-03-21T04:00:11.360Z,90.73
2023-03-21T04:01:08.330Z,90.63
2023-03-21T04:02:08.365Z,90.63
2023-03-21T04:03:08.400Z,90.63
2023-03-21T04:04:13.278Z,90.42
2023-03-21T04:05:09.304Z,90.59
2023-03-21T04:06:08.269Z,90.63
2023-03-21T04:07:08.241Z,90.83
2023-03-21T04:08:08.256Z,90.73
2023-03-21T04:09:19.188Z,90.53
2023-03-21T04:10:09.205Z,90.53
2023-03-21T04:11:08.196Z,90.59
2023-03-21T04:12:08.208Z,90.48
2023-03-21T04:13:08.173Z,90.42
2023-03-21T04:14:08.155Z,90.53
2023-03-21T04:15:10.978Z,90.53
2023-03-21T04:16:08.263Z,90.59
2023-03-21T04:17:08.128Z,90.28
2023-03-21T04:18:08.109Z,90.32
2023-03-21T04:19:11.096Z,90.53
2023-03-21T04:20:18.468Z,90.28
2023-03-21T04:21:09.066Z,90.42
2023-03-21T04:22:08.059Z,90.32
2023-03-21T04:23:08.064Z,90.18
2023-03-21T04:24:08.029Z,90.32
2023-03-21T04:25:08.013Z,90.22
2023-03-21T04:26:08.082Z,90.28
2023-03-21T04:27:08.000Z,90.73
2023-03-21T04:28:07.982Z,90.08
2023-03-21T04:29:10.673Z,90.12
2023-03-21T04:30:07.962Z,90.12
2023-03-21T04:31:16.164Z,90.48
2023-03-21T04:32:08.993Z,90.38
2023-03-21T04:33:07.905Z,90.18
2023-03-21T04:34:07.875Z,90.12
2023-03-21T04:35:07.860Z,90.22
2023-03-21T04:36:07.913Z,90.12
2023-03-21T04:37:07.869Z,90.18
2023-03-21T04:38:07.834Z,90.38
2023-03-21T04:39:10.818Z,90.08
2023-03-21T04:40:10.860Z,90.08
2023-03-21T04:41:07.783Z,90.18
2023-03-21T04:42:07.814Z,90.12
2023-03-21T04:43:07.769Z,90.12
2023-03-21T04:44:07.753Z,90.12
2023-03-21T04:45:07.726Z,89.87
2023-03-21T04:46:07.790Z,89.91
2023-03-21T04:47:07.704Z,90.12
2023-03-21T04:48:07.884Z,90.22
2023-03-21T04:49:07.685Z,90.01
2023-03-21T04:50:07.664Z,90.08
2023-03-21T04:51:07.650Z,90.08
2023-03-21T04:52:07.649Z,90.18
2023-03-21T04:53:07.616Z,90.08
2023-03-21T04:54:42.115Z,89.87
2023-03-21T04:55:42.096Z,90.12
2023-03-21T04:56:42.094Z,89.87
2023-03-21T04:57:42.074Z,89.76
2023-03-21T04:58:42.101Z,89.76
2023-03-21T04:59:42.056Z,89.81
2023-03-21T05:00:42.068Z,89.97
2023-03-21T05:01:42.028Z,89.76
2023-03-21T05:02:42.033Z,89.87
2023-03-21T05:03:42.034Z,89.87
2023-03-21T05:04:42.013Z,90.08
2023-03-21T05:05:41.966Z,89.76
2023-03-21T05:06:41.955Z,89.66
2023-03-21T05:07:41.939Z,89.87
2023-03-21T05:08:41.927Z,89.76
2023-03-21T05:09:41.945Z,89.97
2023-03-21T05:10:41.938Z,89.66
2023-03-21T05:11:41.887Z,89.76
2023-03-21T05:12:41.876Z,89.87
2023-03-21T05:13:44.910Z,89.76
2023-03-21T05:14:44.895Z,89.87
2023-03-21T05:15:41.838Z,89.81
2023-03-21T05:16:41.902Z,89.70
2023-03-21T05:17:41.821Z,89.66
2023-03-21T05:18:41.798Z,89.66
2023-03-21T05:19:41.794Z,89.66
2023-03-21T05:20:41.783Z,89.56
2023-03-21T05:21:42.046Z,89.56
2023-03-21T05:22:41.775Z,89.56
2023-03-21T05:23:41.746Z,89.87
2023-03-21T05:24:41.765Z,89.46
2023-03-21T05:25:41.716Z,89.46
2023-03-21T05:26:41.695Z,89.46
2023-03-21T05:27:41.740Z,89.56
2023-03-21T05:28:41.687Z,89.42
2023-03-21T05:29:41.656Z,89.42
2023-03-21T05:30:41.720Z,89.46
2023-03-21T05:31:41.625Z,89.66
2023-03-21T05:32:41.630Z,89.36
2023-03-21T05:33:44.650Z,89.46
2023-03-21T05:34:44.618Z,89.36
2023-03-21T05:35:41.648Z,89.25
2023-03-21T05:36:41.570Z,89.25
2023-03-21T05:37:41.565Z,89.15
2023-03-21T05:38:41.533Z,89.15
2023-03-21T05:39:41.548Z,89.25
2023-03-21T05:40:41.524Z,89.15
2023-03-21T05:41:41.498Z,89.15
2023-03-21T05:42:41.487Z,89.25
2023-03-21T05:43:41.467Z,89.25
2023-03-21T05:44:41.488Z,89.04
2023-03-21T05:45:41.448Z,88.95
2023-03-21T05:46:41.441Z,89.25
2023-03-21T05:47:41.468Z,88.95
2023-03-21T05:48:41.417Z,89.15
2023-03-21T05:49:41.420Z,88.95
2023-03-21T05:50:41.401Z,89.04
2023-03-21T05:51:41.365Z,88.84
2023-03-21T05:52:41.369Z,88.95
2023-03-21T05:53:44.337Z,88.74
2023-03-21T05:54:44.386Z,89.04
2023-03-21T05:55:41.319Z,88.95
2023-03-21T05:56:41.299Z,88.74
2023-03-21T05:57:41.304Z,88.64
2023-03-21T05:58:41.328Z,88.74
2023-03-21T05:59:41.261Z,88.74
2023-03-21T06:00:41.276Z,88.64
2023-03-21T06:01:41.241Z,88.74
2023-03-21T06:02:41.263Z,88.80
2023-03-21T06:03:41.275Z,88.64
2023-03-21T06:04:41.252Z,88.64
2023-03-21T06:05:41.196Z,88.49
2023-03-21T06:06:41.203Z,88.53
2023-03-21T06:07:41.162Z,88.53
2023-03-21T06:08:41.153Z,88.74
2023-03-21T06:09:41.165Z,88.64
2023-03-21T06:10:41.133Z,88.43
2023-03-21T06:11:41.105Z,88.64
2023-03-21T06:12:41.100Z,88.53
2023-03-21T06:13:44.076Z,88.64
2023-03-21T06:14:44.155Z,88.29
2023-03-21T06:15:41.115Z,88.23
2023-03-21T06:16:41.057Z,88.70
2023-03-21T06:17:41.039Z,88.23
2023-03-21T06:18:41.019Z,88.18
2023-03-21T06:19:41.006Z,88.59
2023-03-21T06:20:41.037Z,88.29
2023-03-21T06:21:40.990Z,88.29
2023-03-21T06:22:40.979Z,88.29
2023-03-21T06:23:40.967Z,88.23
2023-03-21T06:24:40.949Z,88.18
2023-03-21T06:25:40.969Z,88.29
2023-03-21T06:26:40.923Z,88.08
2023-03-21T06:27:40.900Z,87.98
2023-03-21T06:28:40.901Z,88.18
2023-03-21T06:29:40.871Z,87.98
2023-03-21T06:30:40.866Z,88.18
2023-03-21T06:31:40.978Z,87.77
2023-03-21T06:32:40.839Z,88.08
2023-03-21T06:33:43.842Z,87.88
2023-03-21T06:34:43.828Z,87.98
2023-03-21T06:35:40.845Z,87.77
2023-03-21T06:36:40.800Z,87.88
2023-03-21T06:37:40.793Z,87.88
2023-03-21T06:38:40.781Z,87.88
2023-03-21T06:39:40.742Z,88.08
2023-03-21T06:40:40.762Z,87.98
2023-03-21T06:41:40.747Z,87.88
2023-03-21T06:42:40.706Z,88.08
2023-03-21T06:43:40.691Z,87.77
2023-03-21T06:44:40.671Z,87.77
2023-03-21T06:45:40.664Z,87.88
2023-03-21T06:46:40.692Z,87.63
2023-03-21T06:47:40.722Z,87.73
2023-03-21T06:48:40.623Z,87.84
2023-03-21T06:49:40.615Z,87.67
2023-03-21T06:50:40.594Z,87.73
2023-03-21T06:51:40.590Z,87.84
2023-03-21T06:52:40.630Z,87.73
2023-03-21T06:53:43.575Z,87.84
2023-03-21T06:54:43.555Z,87.63
2023-03-21T06:55:40.562Z,87.63
2023-03-21T06:56:40.510Z,87.53
2023-03-21T06:57:40.503Z,87.53
2023-03-21T06:58:40.528Z,87.53
2023-03-21T06:59:40.477Z,87.43
2023-03-21T07:00:40.500Z,87.43
2023-03-21T07:01:40.450Z,87.53
2023-03-21T07:02:40.514Z,87.53
2023-03-21T07:03:40.420Z,87.63
2023-03-21T07:04:40.476Z,87.63
2023-03-21T07:05:40.739Z,87.73
2023-03-21T07:06:40.432Z,87.53
2023-03-21T07:07:40.386Z,87.53
2023-03-21T07:08:40.369Z,87.32
2023-03-21T07:09:40.340Z,87.63
2023-03-21T07:10:40.382Z,87.43
2023-03-21T07:11:40.325Z,87.22
2023-03-21T07:12:40.304Z,87.53
2023-03-21T07:13:43.286Z,87.12
2023-03-21T07:14:43.293Z,87.22
2023-03-21T07:15:40.317Z,87.53
2023-03-21T07:16:40.293Z,87.63
2023-03-21T07:17:40.238Z,87.32
2023-03-21T07:18:40.235Z,87.43
2023-03-21T07:19:40.215Z,87.53
2023-03-21T07:20:40.226Z,87.53
2023-03-21T07:21:40.184Z,87.38
2023-03-21T07:22:40.160Z,87.43
2023-03-21T07:23:40.159Z,87.43
2023-03-21T07:24:40.152Z,87.43
2023-03-21T07:25:40.541Z,87.22
2023-03-21T07:26:40.107Z,87.28
2023-03-21T07:27:41.231Z,87.28
2023-03-21T07:28:40.082Z,87.53
2023-03-21T07:29:40.077Z,87.38
2023-03-21T07:30:40.091Z,87.38
2023-03-21T07:31:40.197Z,87.49
2023-03-21T07:32:40.032Z,87.38
2023-03-21T07:33:43.988Z,87.70
2023-03-21T07:34:43.009Z,87.59
2023-03-21T07:35:40.615Z,87.70
2023-03-21T07:36:39.971Z,87.59
2023-03-21T07:37:40.039Z,87.49
2023-03-21T07:38:39.943Z,87.49
2023-03-21T07:39:39.936Z,87.49
2023-03-21T07:40:40.137Z,87.49
2023-03-21T07:41:39.903Z,87.70
2023-03-21T07:42:39.882Z,87.90
2023-03-21T07:43:39.946Z,87.70
2023-03-21T07:44:39.859Z,87.90
2023-03-21T07:45:40.107Z,87.90
2023-03-21T07:46:39.821Z,88.00
2023-03-21T07:47:39.902Z,87.90
2023-03-21T07:48:39.818Z,87.90
2023-03-21T07:49:39.812Z,88.00
2023-03-21T07:50:39.785Z,87.90
2023-03-21T07:51:39.764Z,87.70
2023-03-21T07:52:39.772Z,87.79
2023-03-21T07:53:42.735Z,87.70
2023-03-21T07:54:42.732Z,87.70
2023-03-21T07:55:40.189Z,87.65
2023-03-21T07:56:39.705Z,88.00
2023-03-21T07:57:39.703Z,87.79
2023-03-21T07:58:39.651Z,87.70
2023-03-21T07:59:39.661Z,87.79
2023-03-21T08:00:39.637Z,88.00
2023-03-21T08:01:39.628Z,88.00
2023-03-21T08:02:39.731Z,88.21
2023-03-21T08:03:39.660Z,88.10
2023-03-21T08:04:39.598Z,88.21
2023-03-21T08:05:39.779Z,88.21
2023-03-21T08:06:39.558Z,88.21
2023-03-21T08:07:39.555Z,88.31
2023-03-21T08:08:39.567Z,88.51
2023-03-21T08:09:39.516Z,88.21
2023-03-21T08:10:39.528Z,88.21
2023-03-21T08:11:39.497Z,88.00
2023-03-21T08:12:39.497Z,88.10
2023-03-21T08:13:42.478Z,88.31
2023-03-21T08:14:42.478Z,88.10
2023-03-21T08:15:39.532Z,88.41
2023-03-21T08:16:39.424Z,88.10
2023-03-21T08:17:39.400Z,88.27
2023-03-21T08:18:39.392Z,88.27
2023-03-21T08:19:39.400Z,88.10
2023-03-21T08:20:39.400Z,88.17
2023-03-21T08:21:39.367Z,88.27
2023-03-21T08:22:39.333Z,88.37
2023-03-21T08:23:39.312Z,87.85
2023-03-21T08:24:39.298Z,88.27
2023-03-21T08:25:39.728Z,87.85
2023-03-21T08:26:39.305Z,88.17
2023-03-21T08:27:39.257Z,87.96
2023-03-21T08:28:39.268Z,88.47
2023-03-21T08:29:39.227Z,88.27
2023-03-21T08:30:39.354Z,88.27
2023-03-21T08:31:39.228Z,88.43
2023-03-21T08:32:39.190Z,88.74
2023-03-21T08:33:42.212Z,88.53
2023-03-21T08:34:42.161Z,88.64
2023-03-21T08:35:41.142Z,88.84
2023-03-21T08:36:39.129Z,89.15
2023-03-21T08:37:39.109Z,89.04
2023-03-21T08:38:39.126Z,88.94
2023-03-21T08:39:39.148Z,89.04
2023-03-21T08:40:39.051Z,88.94
2023-03-21T08:41:39.083Z,89.15
2023-03-21T08:42:39.042Z,89.36
2023-03-21T08:43:39.051Z,88.84
2023-03-21T08:44:39.047Z,88.84
2023-03-21T08:45:39.234Z,89.25
2023-03-21T08:46:39.030Z,89.00
2023-03-21T08:47:39.037Z,88.94
2023-03-21T08:48:38.976Z,89.00
2023-03-21T08:49:38.945Z,89.42
2023-03-21T08:50:38.935Z,89.87
2023-03-21T08:51:38.926Z,89.45
2023-03-21T08:52:38.941Z,89.97
2023-03-21T08:53:41.909Z,90.03
2023-03-21T08:54:41.894Z,89.51
2023-03-21T08:55:39.129Z,90.28
2023-03-21T08:56:38.857Z,90.28
2023-03-21T08:57:38.833Z,90.17
2023-03-21T08:58:38.826Z,89.87
2023-03-21T08:59:38.803Z,89.97
2023-03-21T09:00:38.776Z,90.17
2023-03-21T09:01:38.822Z,89.87
2023-03-21T09:02:38.745Z,89.87
2023-03-21T09:03:38.762Z,89.87
2023-03-21T09:04:38.795Z,89.97
2023-03-21T09:05:39.139Z,89.66
2023-03-21T09:06:38.699Z,89.87
2023-03-21T09:07:38.688Z,89.45
2023-03-21T09:08:38.708Z,89.56
2023-03-21T09:09:38.658Z,89.87
2023-03-21T09:10:38.657Z,89.45
2023-03-21T09:11:38.642Z,89.36
2023-03-21T09:12:38.618Z,89.56
2023-03-21T09:13:41.632Z,89.15
2023-03-21T09:14:41.623Z,89.15
2023-03-21T09:15:38.744Z,89.15
2023-03-21T09:16:38.568Z,89.25
2023-03-21T09:17:38.551Z,89.15
2023-03-21T09:18:38.538Z,89.15
2023-03-21T09:19:38.520Z,89.21
2023-03-21T09:20:38.530Z,89.11
2023-03-21T09:21:38.492Z,89.00
2023-03-21T09:22:39.746Z,89.62
2023-03-21T09:23:38.462Z,89.83
2023-03-21T09:24:38.454Z,89.92
2023-03-21T09:25:38.708Z,89.83
2023-03-21T09:26:38.422Z,89.72
2023-03-21T09:27:38.417Z,89.83
2023-03-21T09:28:38.383Z,89.87
2023-03-21T09:29:38.389Z,89.83
2023-03-21T09:30:38.382Z,89.87
2023-03-21T09:31:38.411Z,89.72
2023-03-21T09:32:38.341Z,89.92
2023-03-21T09:33:41.348Z,89.51
2023-03-21T09:34:41.458Z,89.62
2023-03-21T09:35:38.648Z,89.72
2023-03-21T09:36:38.309Z,89.83
2023-03-21T09:37:38.265Z,89.72
2023-03-21T09:38:38.242Z,90.13
2023-03-21T09:39:38.240Z,89.92
2023-03-21T09:40:38.221Z,90.03
2023-03-21T09:41:38.240Z,90.13
2023-03-21T09:42:38.187Z,90.13
2023-03-21T09:43:38.188Z,90.03
2023-03-21T09:44:38.285Z,90.34
2023-03-21T09:45:38.507Z,89.92
2023-03-21T09:46:38.190Z,90.34
2023-03-21T09:47:38.138Z,90.23
2023-03-21T09:48:46.978Z,90.13
2023-03-21T09:49:39.100Z,90.13
2023-03-21T09:50:38.115Z,90.34
2023-03-21T09:51:38.110Z,90.23
2023-03-21T09:52:38.119Z,89.92
2023-03-21T09:53:41.083Z,89.83
2023-03-21T09:54:41.042Z,89.92
2023-03-21T09:55:38.293Z,89.72
2023-03-21T09:56:38.015Z,89.51
2023-03-21T09:57:38.010Z,89.42
2023-03-21T09:58:37.962Z,89.42
2023-03-21T09:59:37.983Z,89.51
2023-03-21T10:00:38.009Z,89.51
2023-03-21T10:01:37.925Z,89.31
2023-03-21T10:02:37.938Z,89.62
2023-03-21T10:03:37.941Z,89.21
2023-03-21T10:04:38.075Z,89.11
2023-03-21T10:05:38.237Z,89.00
2023-03-21T10:06:37.908Z,88.90
2023-03-21T10:07:37.835Z,88.80
2023-03-21T10:08:37.856Z,88.90
2023-03-21T10:09:37.834Z,88.56
2023-03-21T10:10:38.207Z,88.76
2023-03-21T10:11:37.783Z,89.21
2023-03-21T10:12:37.771Z,89.17
2023-03-21T10:13:40.766Z,89.21
2023-03-21T10:14:40.758Z,89.17
2023-03-21T10:15:38.133Z,89.21
2023-03-21T10:16:37.783Z,88.65
2023-03-21T10:17:37.707Z,88.65
2023-03-21T10:18:37.711Z,88.56
2023-03-21T10:19:37.707Z,88.76
2023-03-21T10:20:37.694Z,88.96
2023-03-21T10:21:59.120Z,88.35
2023-03-21T10:22:38.637Z,88.45
2023-03-21T10:23:37.658Z,89.06
2023-03-21T10:24:37.627Z,88.96
2023-03-21T10:25:37.968Z,89.06
2023-03-21T10:26:37.570Z,89.27
2023-03-21T10:27:37.568Z,89.47
2023-03-21T10:28:52.093Z,89.17
2023-03-21T10:29:38.566Z,89.89
2023-03-21T10:30:37.539Z,89.58
2023-03-21T10:31:37.546Z,90.19
2023-03-21T10:32:37.532Z,89.89
2023-03-21T10:33:40.545Z,89.74
2023-03-21T10:34:40.480Z,90.19
2023-03-21T10:35:37.740Z,90.39
2023-03-21T10:36:37.435Z,90.39
2023-03-21T10:37:37.422Z,90.30
2023-03-21T10:38:37.403Z,90.05
2023-03-21T10:39:37.412Z,89.68
2023-03-21T10:40:37.418Z,89.53
2023-03-21T10:41:37.361Z,89.84
2023-03-21T10:42:37.371Z,90.45
2023-03-21T10:43:37.357Z,90.31
2023-03-21T10:44:37.424Z,90.82
2023-03-21T10:45:37.795Z,90.92
2023-03-21T10:46:37.450Z,91.23
2023-03-21T10:47:37.512Z,91.54
2023-03-21T10:48:37.526Z,92.21
2023-03-21T10:49:56.492Z,92.01
2023-03-21T10:50:38.335Z,92.11
2023-03-21T10:51:37.247Z,93.24
2023-03-21T10:52:37.240Z,94.06
2023-03-21T10:53:40.197Z,94.87
2023-03-21T10:54:40.214Z,95.18
2023-03-21T10:55:37.501Z,95.48
2023-03-21T10:56:37.226Z,95.07
2023-03-21T10:57:37.178Z,94.62
2023-03-21T10:58:37.138Z,94.52
2023-03-21T10:59:37.137Z,94.97
2023-03-21T11:00:37.123Z,95.38
2023-03-21T11:01:37.163Z,95.89
2023-03-21T11:02:37.208Z,96.30
2023-03-21T11:03:37.132Z,96.10
2023-03-21T11:04:37.060Z,96.20
2023-03-21T11:05:37.449Z,96.00
2023-03-21T11:06:37.030Z,95.59
2023-03-21T11:07:37.034Z,95.59
2023-03-21T11:08:37.078Z,95.79
2023-03-21T11:09:36.990Z,96.00
2023-03-21T11:10:36.989Z,96.20
2023-03-21T11:11:36.963Z,96.81
2023-03-21T11:12:36.957Z,96.51
2023-03-21T11:13:40.003Z,96.30
2023-03-21T11:14:39.939Z,96.51
2023-03-21T11:15:37.054Z,96.10
2023-03-21T11:16:38.466Z,96.41
2023-03-21T11:17:36.886Z,96.51
2023-03-21T11:18:36.874Z,96.30
2023-03-21T11:19:36.907Z,96.25
2023-03-21T11:20:36.859Z,96.25
2023-03-21T11:21:36.840Z,95.73
2023-03-21T11:22:36.855Z,96.04
2023-03-21T11:23:36.820Z,95.94
2023-03-21T11:24:36.808Z,96.14
2023-03-21T11:25:37.267Z,96.04
2023-03-21T11:26:36.785Z,95.94
2023-03-21T11:27:36.756Z,95.63
2023-03-21T11:28:36.736Z,95.43
2023-03-21T11:29:36.725Z,94.71
2023-03-21T11:30:36.758Z,94.81
2023-03-21T11:31:36.755Z,94.10
2023-03-21T11:32:36.676Z,94.10
2023-03-21T11:33:39.673Z,94.15
2023-03-21T11:34:39.668Z,94.46
2023-03-21T11:35:37.089Z,95.12
2023-03-21T11:36:36.618Z,94.77
2023-03-21T11:37:36.648Z,94.97
2023-03-21T11:38:36.609Z,96.00
2023-03-21T11:39:36.618Z,96.10
2023-03-21T11:40:36.584Z,95.89
2023-03-21T11:41:36.564Z,96.20
2023-03-21T11:42:36.551Z,95.38
2023-03-21T11:43:36.587Z,95.38
2023-03-21T11:44:36.591Z,94.87
2023-03-21T11:45:37.107Z,94.97
2023-03-21T11:46:36.581Z,94.97
2023-03-21T11:47:36.473Z,94.97
2023-03-21T11:48:36.476Z,95.18
2023-03-21T11:49:36.492Z,95.07
2023-03-21T11:50:36.442Z,95.07
2023-03-21T11:51:36.431Z,94.77
2023-03-21T11:52:36.414Z,94.67
2023-03-21T11:53:39.398Z,94.67
2023-03-21T11:54:39.434Z,94.26
2023-03-21T11:55:36.732Z,94.36
2023-03-21T11:56:36.361Z,94.10
2023-03-21T11:57:36.410Z,94.36
2023-03-21T11:58:36.380Z,93.95
2023-03-21T11:59:36.315Z,94.36
2023-03-21T12:00:36.322Z,94.46
2023-03-21T12:01:36.287Z,94.15
2023-03-21T12:02:36.369Z,93.74
2023-03-21T12:03:47.135Z,93.33
2023-03-21T12:04:37.300Z,93.24
2023-03-21T12:05:36.454Z,92.93
2023-03-21T12:06:36.236Z,92.93
2023-03-21T12:07:36.202Z,93.91
2023-03-21T12:08:36.219Z,94.73
2023-03-21T12:09:36.258Z,94.82
2023-03-21T12:10:36.168Z,94.82
2023-03-21T12:11:36.156Z,94.82
2023-03-21T12:12:39.185Z,94.87
2023-03-21T12:13:39.197Z,94.77
2023-03-21T12:14:39.137Z,94.36
2023-03-21T12:15:36.310Z,94.21
2023-03-21T12:16:36.224Z,94.62
2023-03-21T12:17:36.094Z,94.11
2023-03-21T12:18:36.071Z,94.01
2023-03-21T12:19:36.073Z,94.32
2023-03-21T12:20:36.042Z,94.77
2023-03-21T12:21:36.013Z,95.07
2023-03-21T12:22:36.059Z,95.03
2023-03-21T12:23:36.111Z,95.34
2023-03-21T12:24:35.992Z,96.56
2023-03-21T12:25:36.330Z,96.67
2023-03-21T12:26:35.971Z,96.77
2023-03-21T12:27:35.935Z,96.83
2023-03-21T12:28:35.964Z,97.58
2023-03-21T12:29:35.911Z,97.79
2023-03-21T12:30:35.918Z,98.61
2023-03-21T12:31:35.999Z,99.22
2023-03-21T12:32:35.870Z,99.02
2023-03-21T12:33:38.914Z,98.91
2023-03-21T12:34:38.862Z,99.11
2023-03-21T12:35:35.958Z,98.50
2023-03-21T12:36:35.849Z,98.15
2023-03-21T12:37:35.794Z,98.91
2023-03-21T12:38:35.872Z,99.63
2023-03-21T12:39:35.822Z,99.43
2023-03-21T12:40:35.774Z,99.93
2023-03-21T12:41:35.777Z,99.99
2023-03-21T12:42:35.740Z,99.52
2023-03-21T12:43:35.721Z,98.91
2023-03-21T12:44:35.713Z,98.36
2023-03-21T12:45:46.747Z,98.86
2023-03-21T12:46:36.768Z,99.52
2023-03-21T12:47:35.676Z,99.48
2023-03-21T12:48:35.656Z,99.58
2023-03-21T12:49:35.639Z,99.38
2023-03-21T12:50:35.625Z,99.58
2023-03-21T12:51:35.663Z,99.58
2023-03-21T12:52:35.616Z,99.99
2023-03-21T12:53:38.605Z,99.99
2023-03-21T12:54:38.607Z,99.99